• Join FlightAware (Why Join?)
  • Login
  • US Flag GB Flag 
11:54 EDT


 

Airport Tracker/Info


-or-


 

Live Flight TrackerFlight Track Log ✈ CTL311 ✈ 05-Jul-2013 ✈ KFWA - KJXN

Flight Track Log - Related Links

Times and Time Zones

All times are in EDT time to prevent confusion due to time zone crossing. See the CTL311 flight status page for this flight to view local times or setup timezone preferences in your user account.

Time Position Orientation Groundspeed Altitude Reporting Facility
EDT Latitude Longitude Course Direction KTS MPH feet Rate Location/Type
06:22 41.0450 -85.1753 24° Northeast 157 181 2,800  Level Chicago Center
06:23 41.0864 -85.1544 21° North 158 182 3,300 480 Climbing Chicago Center
06:24 41.1292 -85.1303 23° Northeast 161 185 3,800 360 Climbing Chicago Center
06:25 41.1717 -85.1058 23° Northeast 165 190 4,100 240 Climbing Chicago Center
06:26 41.1965 -85.0725 23° Northeast  Level Estimated
06:26 41.2156 -85.0803 24° Northeast 168 193 4,400  Level Chicago Center
06:27 41.2308 -85.0517 24° Northeast  Level FlightAware Approximate
06:27 41.2592 -85.0592 20° North 169 194 4,700  Level Chicago Center
06:28 41.3017 -85.0367 22° Northeast 167 192 5,000 360 Climbing Chicago Center
06:29 41.3439 -85.0131 23° Northeast 166 191 5,500 240 Climbing Chicago Center
06:30 41.3869 -84.9883 23° Northeast 167 192 5,500  Level Chicago Center
06:31 41.4317 -84.9628 23° Northeast 172 198 5,500  Level Chicago Center
06:32 41.4744 -84.9367 25° Northeast 172 198 5,500  Level Chicago Center
06:33 41.5167 -84.9119 24° Northeast 169 194 5,500 -60 Level Chicago Center
06:34 41.5606 -84.8850 25° Northeast 172 198 5,400  Descending Chicago Center
06:35 41.6003 -84.8553 29° Northeast 168 193 5,500  Climbing Chicago Center
06:36 41.6431 -84.8289 25° Northeast 169 194 5,500  Level Chicago Center
06:37 41.6858 -84.8078 20° North 167 192 5,500 -60 Level Chicago Center
06:38 41.7275 -84.7753 30° Northeast 173 199 5,400  Descending Chicago Center
06:39 41.7769 -84.7439 25° Northeast 171 197 5,500  Climbing Chicago Center
06:40 41.8231 -84.7356 North 169 194 5,500  Level Chicago Center
06:41 41.8661 -84.7108 23° Northeast 170 196 5,500 -60 Level Chicago Center
06:42 41.9117 -84.6997 10° North 169 194 5,400  Descending Chicago Center
06:43 41.9517 -84.6719 27° Northeast 165 190 5,500 -300 Climbing Chicago Center
06:44 41.9950 -84.6453 25° Northeast 169 194 4,800 -780 Descending Chicago Center
06:45 42.0431 -84.6161 24° Northeast 184 212 4,000 -840 Descending Chicago Center